Time;durP1;ratioP1;P1;durP2;ratioP2;P2;SDS_P1;SDS_P2;PMS_P1;PMS_P2;Temp;Humidity;BMP_temperature;BMP_pressure;BME280_temperature;BME280_humidity;BME280_pressure;Samples;Min_cycle;Max_cycle;Signal;HPM_P1;HPM_P2
2022/08/08 00:01:38;;;;;;;4.32;1.40;;;;;;;19.54;84.54;98518.44;5018788;28;20029;-57
2022/08/08 00:04:14;;;;;;;3.03;1.25;;;;;;;19.48;83.72;98506.91;5019533;28;20523;-57
2022/08/08 00:07:11;;;;;;;4.07;1.40;;;;;;;19.46;84.84;98506.28;5014354;28;20338;-57
2022/08/08 00:10:08;;;;;;;3.15;1.25;;;;;;;19.46;85.85;98508.09;5006179;28;20092;-58
2022/08/08 00:12:42;;;;;;;3.55;1.33;;;;;;;19.44;85.34;98515.41;5013489;28;20025;-58
2022/08/08 00:15:14;;;;;;;3.33;1.40;;;;;;;19.45;84.67;98515.22;5005824;28;20240;-57
2022/08/08 00:17:53;;;;;;;4.43;1.20;;;;;;;19.35;87.00;98501.66;5010247;28;20033;-58
2022/08/08 00:20:27;;;;;;;3.88;1.00;;;;;;;19.09;88.42;98470.81;5009623;28;20318;-57
2022/08/08 00:22:55;;;;;;;4.80;1.20;;;;;;;19.26;89.15;98505.47;5013996;28;20026;-56
2022/08/08 00:25:31;;;;;;;3.53;1.20;;;;;;;19.19;89.57;98492.31;4996422;28;20026;-58
2022/08/08 00:27:58;;;;;;;4.85;1.50;;;;;;;19.22;90.48;98497.19;5014740;28;20790;-57
2022/08/08 00:30:25;;;;;;;3.03;1.23;;;;;;;19.23;89.63;98508.53;5012407;28;20111;-58
2022/08/08 00:32:57;;;;;;;4.47;1.30;;;;;;;19.14;90.27;98497.38;5014662;28;20722;-56
2022/08/08 00:35:40;;;;;;;3.70;1.10;;;;;;;19.19;90.04;98501.03;5016466;28;20150;-57
2022/08/08 00:38:30;;;;;;;3.75;1.33;;;;;;;18.97;90.99;98468.00;5020021;28;20041;-56
2022/08/08 00:41:13;;;;;;;;;;;;;;;19.13;89.46;98493.94;5020999;28;20083;-56
2022/08/08 00:44:16;;;;;;;3.85;1.50;;;;;;;19.07;89.17;98493.94;5011140;28;19963;-57
2022/08/08 00:47:03;;;;;;;2.88;1.08;;;;;;;18.92;87.98;98471.22;5017761;28;20038;-56
2022/08/08 00:49:47;;;;;;;3.72;1.20;;;;;;;18.98;87.74;98465.16;5015249;28;20460;-57
2022/08/08 00:52:33;;;;;;;3.08;1.20;;;;;;;19.18;nan;98493.31;5017729;28;20030;-57
2022/08/08 00:55:20;;;;;;;6.85;1.20;;;;;;;19.19;87.96;98495.75;5015795;28;20034;-59
2022/08/08 00:57:48;;;;;;;3.63;1.40;;;;;;;19.21;87.70;98488.44;5016907;28;20049;-58
2022/08/08 01:00:21;;;;;;;3.97;1.45;;;;;;;18.86;88.27;98439.63;5016712;28;20128;-58
2022/08/08 01:03:01;;;;;;;4.30;1.20;;;;;;;19.03;88.04;98475.06;5014301;28;20033;-60
2022/08/08 01:05:48;;;;;;;3.70;1.25;;;;;;;19.16;88.63;98487.44;5018177;28;20044;-59
2022/08/08 01:08:22;;;;;;;2.75;1.02;;;;;;;19.13;88.05;98483.41;5015634;28;20032;-57
2022/08/08 01:11:18;;;;;;;3.20;1.10;;;;;;;19.14;88.23;98490.28;5018204;28;20491;-58
2022/08/08 01:14:02;;;;;;;2.80;0.95;;;;;;;19.19;87.57;98490.47;5011554;28;20037;-58
2022/08/08 01:16:33;;;;;;;3.17;1.17;;;;;;;19.19;88.51;98498.38;5014006;28;20087;-61
2022/08/08 01:19:40;;;;;;;3.97;1.17;;;;;;;19.23;87.66;98488.25;5018202;28;20667;-60
2022/08/08 01:22:33;;;;;;;2.95;0.90;;;;;;;19.26;88.19;98485.22;4976415;28;20030;-58
2022/08/08 01:25:28;;;;;;;4.03;1.25;;;;;;;19.26;88.14;98490.50;4976077;28;20045;-58
2022/08/08 01:28:05;;;;;;;3.00;1.20;;;;;;;19.25;88.18;98490.69;4993828;28;20140;-58
2022/08/08 01:31:01;;;;;;;2.63;1.10;;;;;;;19.21;87.80;98482.38;5018023;28;20032;-57
2022/08/08 01:33:48;;;;;;;3.50;1.10;;;;;;;19.16;86.57;98490.06;5018003;28;20041;-57
2022/08/08 01:36:45;;;;;;;2.88;1.10;;;;;;;18.84;86.25;98450.38;5019050;28;20494;-59
2022/08/08 01:39:48;;;;;;;3.20;1.30;;;;;;;19.14;85.75;98500.00;5018362;28;20033;-60
2022/08/08 01:42:21;;;;;;;3.10;1.10;;;;;;;19.13;85.20;98499.22;5022082;28;20033;-58
2022/08/08 01:45:16;;;;;;;3.22;1.05;;;;;;;19.12;85.25;98500.22;5013500;28;20081;-58
2022/08/08 01:48:12;;;;;;;3.83;1.00;;;;;;;19.18;85.29;98501.22;4991129;28;20758;-59
2022/08/08 01:50:48;;;;;;;2.88;1.10;;;;;;;19.19;85.16;98498.38;5015741;28;20036;-57
2022/08/08 01:53:26;;;;;;;3.35;1.08;;;;;;;19.18;85.16;98494.16;5022880;28;20407;-58
2022/08/08 01:56:09;;;;;;;3.30;1.17;;;;;;;18.97;84.82;98460.91;5021676;28;20038;-61
2022/08/08 01:58:53;;;;;;;2.85;1.00;;;;;;;19.23;84.80;98498.78;5015605;28;20792;-58
2022/08/08 02:01:19;;;;;;;3.42;1.10;;;;;;;19.29;85.12;98497.16;5000562;28;20025;-56
2022/08/08 02:03:56;;;;;;;3.13;1.30;;;;;;;19.18;85.13;98491.50;5024825;28;20032;-57
2022/08/08 02:06:56;;;;;;;3.25;1.20;;;;;;;19.15;85.69;98494.53;5021528;28;20021;-59
2022/08/08 02:09:36;;;;;;;6.72;1.30;;;;;;;19.20;85.34;98491.28;5021465;28;20771;-57
2022/08/08 02:12:07;;;;;;;3.45;1.23;;;;;;;19.23;85.45;98484.81;5024663;28;20038;-59
2022/08/08 02:14:34;;;;;;;3.40;1.20;;;;;;;19.13;85.59;98470.22;5005423;28;20040;-59
2022/08/08 02:17:53;;;;;;;3.25;1.15;;;;;;;19.23;85.39;98498.00;5021865;28;20689;-60
2022/08/08 02:23:45;;;;;;;4.88;1.23;;;;;;;18.92;86.12;98452.78;4977136;28;20115;-56
2022/08/08 02:26:17;;;;;;;3.72;1.10;;;;;;;19.16;85.06;98484.81;5020460;28;20038;-56
2022/08/08 02:29:13;;;;;;;3.50;1.10;;;;;;;19.19;84.73;98487.03;5024183;28;20421;-59
2022/08/08 02:31:57;;;;;;;4.30;1.10;;;;;;;19.27;84.99;98484.19;5019976;28;20037;-59
2022/08/08 02:35:00;;;;;;;5.22;1.20;;;;;;;19.20;85.23;98480.75;5021378;28;20025;-58
2022/08/08 02:37:57;;;;;;;3.60;1.30;;;;;;;19.19;84.98;98479.13;5023528;28;20722;-58
2022/08/08 02:40:59;;;;;;;3.00;1.20;;;;;;;19.18;84.80;98480.97;5022045;28;20174;-59
2022/08/08 02:43:41;;;;;;;3.65;1.05;;;;;;;19.14;84.65;98478.94;5025427;28;20048;-60
2022/08/08 02:46:13;;;;;;;3.33;1.20;;;;;;;19.19;84.25;98476.50;5020758;28;20030;-58
2022/08/08 02:49:03;;;;;;;2.83;1.08;;;;;;;19.12;83.31;98480.97;5022165;28;20064;-58
2022/08/08 02:51:45;;;;;;;6.32;1.20;;;;;;;19.14;83.48;98461.28;5027127;28;20106;-58
2022/08/08 02:54:21;;;;;;;3.65;1.17;;;;;;;19.20;83.30;98475.47;5019945;28;20382;-58
2022/08/08 02:57:05;;;;;;;3.25;1.20;;;;;;;19.26;82.10;98473.84;5020864;28;20550;-60
2022/08/08 03:00:00;;;;;;;3.00;1.00;;;;;;;19.23;83.40;98476.91;5023110;28;20116;-58
2022/08/08 03:02:45;;;;;;;3.00;1.13;;;;;;;19.22;83.49;98476.09;4983459;28;20050;-58
2022/08/08 03:05:42;;;;;;;4.32;1.30;;;;;;;18.97;82.95;98442.44;5022501;28;20036;-58
2022/08/08 03:08:53;;;;;;;3.00;1.15;;;;;;;19.31;82.84;98480.16;5018057;28;20026;-58
2022/08/08 03:11:41;;;;;;;2.95;1.10;;;;;;;19.18;82.81;98482.78;5038967;28;20095;-58
2022/08/08 03:14:30;;;;;;;3.78;1.20;;;;;;;19.18;82.99;98486.25;5018219;28;20041;-59
2022/08/08 03:17:15;;;;;;;3.85;1.27;;;;;;;19.17;82.75;98483.81;5021603;28;20045;-59
2022/08/08 03:19:59;;;;;;;3.53;1.20;;;;;;;19.18;82.65;98493.31;5017619;28;20041;-57
2022/08/08 03:22:25;;;;;;;3.17;1.13;;;;;;;19.17;82.93;98503.06;5012776;28;20029;-60
2022/08/08 03:24:51;;;;;;;3.67;1.30;;;;;;;19.07;83.35;98492.09;5014276;28;20333;-57
2022/08/08 03:27:31;;;;;;;3.17;1.25;;;;;;;19.09;83.05;98492.69;5021051;28;20493;-57
2022/08/08 03:30:03;;;;;;;3.17;1.20;;;;;;;19.19;82.11;98506.28;5014672;28;20079;-55
2022/08/08 03:35:13;;;;;;;3.30;1.20;;;;;;;19.09;83.36;98502.44;5020673;28;20044;-56
2022/08/08 03:37:39;;;;;;;3.40;1.30;;;;;;;19.10;84.17;98515.41;5004359;28;20025;-57
2022/08/08 03:40:05;;;;;;;2.83;1.20;;;;;;;19.02;84.51;98508.53;5020673;28;20552;-58
2022/08/08 03:42:31;;;;;;;2.97;1.10;;;;;;;19.09;84.69;98511.16;5008009;28;20028;-57
2022/08/08 03:44:57;;;;;;;3.22;1.35;;;;;;;18.84;83.49;98471.44;5022970;28;20546;-57
2022/08/08 03:47:22;;;;;;;3.50;1.23;;;;;;;19.12;83.52;98521.28;5020395;28;20506;-57
2022/08/08 03:49:49;;;;;;;5.07;1.40;;;;;;;19.05;83.74;98514.41;5003308;28;20534;-57
2022/08/08 03:52:15;;;;;;;3.15;1.15;;;;;;;19.06;83.42;98516.84;5005542;28;20052;-56
2022/08/08 03:54:44;;;;;;;3.88;1.48;;;;;;;19.09;83.37;98513.78;5003483;28;20052;-57
2022/08/08 03:57:11;;;;;;;4.28;1.30;;;;;;;19.13;82.84;98519.47;5012693;28;20033;-57
2022/08/08 03:59:36;;;;;;;4.70;1.45;;;;;;;19.09;82.88;98523.53;5022309;28;20114;-58
2022/08/08 04:02:02;;;;;;;3.90;1.40;;;;;;;19.09;83.26;98524.31;5019526;28;20037;-57
2022/08/08 04:04:35;;;;;;;8.90;1.73;;;;;;;18.99;83.25;98516.81;5024693;28;20385;-57
2022/08/08 04:07:01;;;;;;;3.15;1.23;;;;;;;18.89;82.59;98490.09;5020528;28;20040;-56
2022/08/08 04:09:26;;;;;;;4.43;1.40;;;;;;;19.14;81.64;98523.72;5021044;28;20033;-58
2022/08/08 04:11:51;;;;;;;3.88;1.20;;;;;;;19.15;81.15;98522.72;5022951;28;20558;-58
2022/08/08 04:14:17;;;;;;;3.75;1.60;;;;;;;18.85;81.59;98469.59;5019873;28;20120;-56
2022/08/08 04:16:42;;;;;;;3.17;1.20;;;;;;;19.00;80.70;98492.13;5023588;28;20052;-57
2022/08/08 04:19:08;;;;;;;2.90;1.20;;;;;;;19.14;80.82;98519.25;5021275;28;20040;-61
2022/08/08 04:21:33;;;;;;;4.20;1.50;;;;;;;19.05;80.97;98509.94;5019847;28;20061;-56
2022/08/08 04:23:59;;;;;;;2.97;1.25;;;;;;;19.18;81.54;98523.13;5020052;28;20053;-56
2022/08/08 04:26:24;;;;;;;4.00;1.25;;;;;;;19.21;82.01;98535.09;5020168;28;20044;-56
2022/08/08 04:28:50;;;;;;;4.07;1.63;;;;;;;19.21;82.35;98533.25;5017527;28;20475;-57
2022/08/08 04:31:15;;;;;;;4.10;1.60;;;;;;;19.29;79.91;98532.25;5020618;28;20033;-58
2022/08/08 04:33:40;;;;;;;3.75;1.30;;;;;;;19.21;79.81;98532.47;5018530;28;20029;-58
2022/08/08 04:36:06;;;;;;;4.07;1.17;;;;;;;19.20;80.85;98530.81;5019837;28;20029;-56
2022/08/08 04:38:31;;;;;;;3.38;1.40;;;;;;;18.97;80.58;98494.34;5013181;28;20036;-57
2022/08/08 04:40:57;;;;;;;3.72;1.33;;;;;;;19.00;80.21;98504.47;5017051;28;20037;-57
2022/08/08 04:43:22;;;;;;;3.03;1.15;;;;;;;19.20;79.36;98534.28;5020430;28;20515;-57
2022/08/08 04:45:49;;;;;;;3.42;1.20;;;;;;;19.33;80.32;98541.38;5021138;28;20041;-58
2022/08/08 04:48:14;;;;;;;4.05;1.40;;;;;;;19.28;79.07;98551.72;5001397;28;20041;-56
2022/08/08 04:50:39;;;;;;;4.25;1.30;;;;;;;19.27;78.34;98551.91;5021938;28;20087;-56
2022/08/08 04:53:05;;;;;;;3.67;1.15;;;;;;;19.33;79.37;98553.72;5020261;28;20021;-58
2022/08/08 04:55:31;;;;;;;4.75;1.27;;;;;;;19.35;79.23;98552.53;5019651;28;20041;-59
2022/08/08 04:57:57;;;;;;;3.90;1.60;;;;;;;19.30;79.16;98552.31;5026018;28;20637;-57
2022/08/08 05:00:24;;;;;;;3.88;1.60;;;;;;;19.25;82.20;98560.03;5001924;28;20038;-56
2022/08/08 05:02:49;;;;;;;3.92;1.40;;;;;;;19.23;81.15;98569.16;5024466;28;20018;-57
2022/08/08 05:05:16;;;;;;;4.15;1.17;;;;;;;19.14;83.42;98564.06;5020673;28;20659;-57
2022/08/08 05:07:41;;;;;;;4.63;1.30;;;;;;;19.16;84.93;98569.13;5019498;28;20181;-58
2022/08/08 05:10:07;;;;;;;3.72;1.40;;;;;;;18.94;85.36;98535.06;5018509;28;20033;-57
2022/08/08 05:12:32;;;;;;;3.85;1.50;;;;;;;18.93;84.88;98532.63;5018159;28;20148;-57
2022/08/08 05:14:58;;;;;;;5.55;1.20;;;;;;;18.80;85.44;98528.94;5017754;28;20393;-58
2022/08/08 05:17:23;;;;;;;3.45;1.30;;;;;;;19.12;84.36;98583.75;4996364;28;20029;-57
2022/08/08 05:19:48;;;;;;;4.30;1.38;;;;;;;18.99;85.03;98582.69;5001892;28;20469;-57
2022/08/08 05:22:14;;;;;;;4.57;1.48;;;;;;;19.07;85.59;98576.41;5007480;28;20125;-59
2022/08/08 05:24:40;;;;;;;4.45;1.30;;;;;;;18.90;86.29;98544.38;4999371;28;20033;-58
2022/08/08 05:27:06;;;;;;;3.80;1.10;;;;;;;18.90;86.67;98556.75;5015444;28;20105;-57
2022/08/08 05:29:32;;;;;;;3.28;1.35;;;;;;;19.10;85.91;98588.41;5015295;28;20075;-57
2022/08/08 05:31:57;;;;;;;3.80;1.20;;;;;;;19.11;84.80;98588.22;5015181;28;20121;-56
2022/08/08 05:34:47;;;;;;;4.30;1.60;;;;;;;19.01;84.76;98585.94;5011508;28;20037;-57
2022/08/08 05:37:17;;;;;;;3.67;1.15;;;;;;;19.07;84.19;98589.59;5013346;28;20119;-58
2022/08/08 05:39:45;;;;;;;3.35;1.27;;;;;;;19.02;84.12;98594.69;5012457;28;20037;-57
2022/08/08 05:42:12;;;;;;;3.90;1.60;;;;;;;18.76;84.06;98559.28;5000130;28;20030;-58
2022/08/08 05:44:46;;;;;;;3.38;1.30;;;;;;;19.01;83.53;98591.22;4999147;28;20060;-59
2022/08/08 05:47:12;;;;;;;4.30;1.17;;;;;;;18.99;83.64;98593.22;5008042;28;20030;-58
2022/08/08 05:49:40;;;;;;;4.03;1.50;;;;;;;18.99;83.84;98603.78;4990328;28;20033;-58
2022/08/08 05:52:05;;;;;;;3.90;1.40;;;;;;;18.98;83.30;98599.53;5016808;28;20064;-58
2022/08/08 05:54:31;;;;;;;3.47;1.38;;;;;;;18.80;83.73;98568.44;4998042;28;20061;-58
2022/08/08 05:56:56;;;;;;;4.00;1.50;;;;;;;19.00;83.55;98600.13;5011094;28;20116;-58
2022/08/08 05:59:23;;;;;;;3.70;1.50;;;;;;;19.01;83.05;98593.84;5018169;28;20504;-58
2022/08/08 06:01:55;;;;;;;3.70;1.50;;;;;;;19.04;83.16;98602.34;5012323;28;20029;-56
2022/08/08 06:04:27;;;;;;;5.32;1.40;;;;;;;18.99;83.72;98587.16;4997354;28;20030;-59
2022/08/08 06:06:55;;;;;;;4.13;1.33;;;;;;;18.75;84.50;98552.41;5000880;28;20084;-57
2022/08/08 06:09:24;;;;;;;3.30;1.40;;;;;;;19.05;83.09;98593.47;5014808;28;20034;-58
2022/08/08 06:11:50;;;;;;;3.65;1.38;;;;;;;19.04;82.81;98586.53;5009597;28;20052;-58
2022/08/08 06:14:16;;;;;;;6.65;1.60;;;;;;;19.10;83.38;98588.41;4991863;28;20456;-59
2022/08/08 06:16:41;;;;;;;4.82;1.50;;;;;;;19.13;82.02;98587.97;5017657;28;20040;-57
2022/08/08 06:19:08;;;;;;;4.82;1.50;;;;;;;19.08;82.58;98585.16;5012104;28;20038;-59
2022/08/08 06:21:36;;;;;;;3.92;1.48;;;;;;;19.08;83.04;98579.88;5011265;28;20086;-58
2022/08/08 06:24:01;;;;;;;4.32;1.40;;;;;;;19.16;83.75;98587.59;5000150;28;20029;-57
2022/08/08 06:26:30;;;;;;;5.10;1.60;;;;;;;19.15;83.35;98581.50;5014498;28;20506;-58
2022/08/08 06:29:10;;;;;;;3.40;1.47;;;;;;;19.10;83.94;98580.50;5015374;28;20107;-59
2022/08/08 06:31:37;;;;;;;3.33;1.30;;;;;;;19.07;83.09;98575.63;5014511;28;20709;-58
2022/08/08 06:34:05;;;;;;;4.55;1.50;;;;;;;19.09;83.58;98594.66;5001533;28;20034;-58
2022/08/08 06:36:39;;;;;;;5.13;1.40;;;;;;;19.09;83.27;98581.50;5014954;28;20029;-59
2022/08/08 06:39:08;;;;;;;2.97;1.20;;;;;;;19.18;83.38;98596.09;5002931;28;20446;-59
2022/08/08 06:41:40;;;;;;;4.20;1.63;;;;;;;19.19;82.19;98579.28;5018724;28;20415;-56
2022/08/08 06:44:10;;;;;;;3.22;1.40;;;;;;;19.30;79.61;98586.59;5014984;28;20030;-56
2022/08/08 06:46:36;;;;;;;4.13;1.38;;;;;;;19.31;78.17;98575.06;5014528;28;20088;-58
2022/08/08 06:49:02;;;;;;;5.53;1.30;;;;;;;19.44;77.71;98595.34;5018292;28;20068;-57
2022/08/08 06:51:27;;;;;;;3.15;1.25;;;;;;;19.27;77.17;98555.34;5000347;28;20112;-57
2022/08/08 06:53:54;;;;;;;3.70;1.40;;;;;;;19.51;77.59;98590.03;5019000;28;20057;-57
2022/08/08 06:56:22;;;;;;;3.47;1.40;;;;;;;19.60;76.39;98583.56;5019711;28;20030;-57
2022/08/08 06:58:47;;;;;;;3.90;1.40;;;;;;;19.63;74.71;98596.34;5014776;28;20036;-57
2022/08/08 07:01:13;;;;;;;3.78;1.45;;;;;;;19.47;74.69;98560.63;5019964;28;20029;-59
2022/08/08 07:03:41;;;;;;;3.20;1.40;;;;;;;19.63;75.96;98598.19;5022999;28;20029;-57
2022/08/08 07:06:09;;;;;;;4.28;1.70;;;;;;;19.55;77.22;98597.38;5018917;28;20032;-56
2022/08/08 07:08:37;;;;;;;4.10;1.70;;;;;;;19.58;76.65;98590.84;5015155;28;20034;-56
2022/08/08 07:11:04;;;;;;;4.60;1.40;;;;;;;19.39;76.72;98552.94;5017492;28;20096;-56
2022/08/08 07:13:38;;;;;;;3.65;1.42;;;;;;;19.67;74.78;98589.63;5012463;28;20025;-57
2022/08/08 07:16:15;;;;;;;3.58;1.40;;;;;;;19.71;75.45;98587.41;5008849;28;20034;-56
2022/08/08 07:19:05;;;;;;;4.65;1.70;;;;;;;19.83;73.35;98598.19;5015320;28;20030;-59
2022/08/08 07:21:33;;;;;;;;;;;;;;;19.89;73.27;98600.00;5015750;28;20214;-57
2022/08/08 07:24:07;;;;;;;3.25;1.30;;;;;;;19.69;73.67;98553.31;5016086;28;20288;-58
2022/08/08 07:26:33;;;;;;;4.43;1.55;;;;;;;19.99;75.52;98600.41;5019200;28;20091;-56
2022/08/08 07:28:59;;;;;;;3.47;1.40;;;;;;;19.91;76.20;98598.78;5003280;28;20680;-58
2022/08/08 07:31:25;;;;;;;4.32;1.60;;;;;;;19.93;75.94;98602.03;5018500;28;20072;-57
2022/08/08 07:33:51;;;;;;;3.75;1.50;;;;;;;19.74;77.41;98573.84;5008194;28;21377;-57
2022/08/08 07:36:18;;;;;;;4.13;1.60;;;;;;;19.80;76.88;98591.47;5017765;28;20052;-58
2022/08/08 07:38:47;;;;;;;4.28;1.48;;;;;;;19.87;76.03;98600.19;5013666;28;20022;-58
2022/08/08 07:41:13;;;;;;;4.10;1.58;;;;;;;19.80;76.19;98590.69;5017025;28;20029;-59
2022/08/08 07:43:39;;;;;;;3.97;1.60;;;;;;;19.91;76.05;98598.78;5014444;28;20067;-60
2022/08/08 07:46:05;;;;;;;3.92;1.30;;;;;;;19.88;75.84;98606.31;4996211;28;20462;-59
2022/08/08 07:48:30;;;;;;;4.20;1.65;;;;;;;19.74;75.16;98566.72;5008800;28;20040;-57
2022/08/08 07:50:57;;;;;;;4.78;1.50;;;;;;;20.07;75.74;98600.16;5013283;28;20038;-58
2022/08/08 07:53:28;;;;;;;3.78;1.45;;;;;;;20.10;76.06;98599.75;5011114;28;20055;-56
2022/08/08 07:55:56;;;;;;;3.50;1.45;;;;;;;20.09;76.61;98592.06;5009713;28;20025;-56
2022/08/08 07:58:37;;;;;;;4.40;1.45;;;;;;;20.02;76.44;98563.03;4995219;28;20720;-57
2022/08/08 08:01:03;;;;;;;4.00;1.50;;;;;;;20.23;76.02;98585.72;5006398;28;20069;-56
2022/08/08 08:03:38;;;;;;;3.70;1.45;;;;;;;20.26;77.08;98572.13;4995891;28;20038;-56
2022/08/08 08:06:05;;;;;;;4.45;1.40;;;;;;;20.45;76.03;98594.19;5010469;28;20064;-56
2022/08/08 08:08:43;;;;;;;4.43;1.45;;;;;;;20.50;76.06;98599.66;5017354;28;20757;-56
2022/08/08 08:11:13;;;;;;;4.07;1.60;;;;;;;20.55;74.37;98605.13;5012380;28;20143;-57
2022/08/08 08:13:44;;;;;;;5.05;1.50;;;;;;;20.64;72.07;98599.63;5000651;28;20046;-59
2022/08/08 08:16:14;;;;;;;4.03;1.50;;;;;;;21.55;68.50;98603.75;5011182;28;20030;-62
2022/08/08 08:18:43;;;;;;;;;;;;;;;22.23;66.05;98604.75;5007904;28;20037;-58
2022/08/08 08:21:09;;;;;;;5.32;1.40;;;;;;;22.76;62.29;98611.28;5004021;28;19979;-56
2022/08/08 08:23:35;;;;;;;4.05;1.60;;;;;;;23.32;60.68;98598.72;5005055;28;20030;-56
2022/08/08 08:26:01;;;;;;;3.88;1.45;;;;;;;24.02;57.87;98597.16;4991392;28;20109;-57
2022/08/08 08:28:27;;;;;;;5.13;1.60;;;;;;;24.26;56.06;98542.97;5007954;28;20041;-61
2022/08/08 08:30:54;;;;;;;4.65;1.70;;;;;;;25.09;55.10;98595.84;5009294;28;20033;-58
2022/08/08 08:33:20;;;;;;;4.97;1.50;;;;;;;25.66;52.73;98592.25;5008503;28;20076;-60
2022/08/08 08:35:46;;;;;;;3.67;1.30;;;;;;;25.69;52.08;98562.47;4994162;28;20030;-61
2022/08/08 08:38:12;;;;;;;4.60;1.30;;;;;;;25.45;51.71;98557.34;5008261;28;20065;-61
2022/08/08 08:40:37;;;;;;;3.80;1.58;;;;;;;26.09;49.41;98596.09;5018572;28;20441;-61
2022/08/08 08:43:03;;;;;;;5.13;1.40;;;;;;;26.28;49.12;98600.09;5014499;28;20054;-61
2022/08/08 08:45:30;;;;;;;4.40;1.20;;;;;;;26.33;48.62;98583.34;5014704;28;20535;-62
2022/08/08 08:47:55;;;;;;;3.58;1.05;;;;;;;26.45;48.41;98600.00;5013020;28;20034;-61
2022/08/08 08:50:23;;;;;;;3.42;0.98;;;;;;;26.19;48.50;98606.06;5015259;28;20684;-59
2022/08/08 08:52:48;;;;;;;3.67;1.30;;;;;;;26.53;48.67;98606.75;5013740;28;20436;-66
2022/08/08 08:55:14;;;;;;;3.65;1.30;;;;;;;26.88;46.72;98605.56;5015671;28;20045;-60
2022/08/08 08:57:42;;;;;;;4.53;1.30;;;;;;;27.24;45.28;98590.69;5013574;28;20040;-61
2022/08/08 09:00:09;;;;;;;3.08;1.05;;;;;;;27.70;43.54;98592.94;5011824;28;20037;-59
2022/08/08 09:02:36;;;;;;;3.50;1.20;;;;;;;27.77;43.83;98577.50;5009543;28;20402;-64
2022/08/08 09:05:04;;;;;;;4.00;1.50;;;;;;;28.29;45.05;98599.16;5003140;28;20110;-59
2022/08/08 09:07:32;;;;;;;3.38;1.50;;;;;;;27.45;47.02;98590.88;5012045;28;20029;-59
2022/08/08 09:09:58;;;;;;;3.78;1.20;;;;;;;27.86;47.30;98591.16;4996267;28;20041;-62
2022/08/08 09:12:26;;;;;;;3.70;1.02;;;;;;;28.00;43.75;98591.53;4997541;28;20065;-60
2022/08/08 09:14:53;;;;;;;2.75;1.00;;;;;;;28.64;42.08;98595.03;5016735;28;20665;-59
2022/08/08 09:17:19;;;;;;;3.65;1.30;;;;;;;28.76;44.25;98579.56;4993581;28;20018;-60
2022/08/08 09:19:48;;;;;;;3.15;1.25;;;;;;;28.52;45.32;98585.34;5003778;28;20021;-59
2022/08/08 09:22:14;;;;;;;4.57;1.70;;;;;;;28.13;47.49;98579.56;5001841;28;20022;-59
2022/08/08 09:24:40;;;;;;;3.38;1.20;;;;;;;27.96;44.81;98577.09;5003638;28;20064;-61
2022/08/08 09:27:10;;;;;;;2.53;1.00;;;;;;;27.90;42.31;98583.47;5007496;28;20061;-61
2022/08/08 09:29:51;;;;;;;3.85;1.30;;;;;;;27.55;43.63;98582.16;4990934;28;20729;-58
2022/08/08 09:32:30;;;;;;;2.53;1.10;;;;;;;27.25;43.83;98575.47;5007968;28;20175;-62
2022/08/08 09:35:00;;;;;;;3.30;1.10;;;;;;;26.61;46.44;98574.38;5010296;28;20634;-59
2022/08/08 09:37:30;;;;;;;4.07;1.25;;;;;;;26.60;47.00;98575.41;5009965;28;20038;-60
2022/08/08 09:40:03;;;;;;;4.95;1.35;;;;;;;25.85;51.86;98577.63;5012025;28;20038;-61
2022/08/08 09:42:34;;;;;;;4.10;1.40;;;;;;;25.47;54.08;98563.22;5016646;28;20025;-62
2022/08/08 09:45:08;;;;;;;3.40;1.30;;;;;;;25.21;54.54;98566.50;5017760;28;20109;-59
2022/08/08 09:47:35;;;;;;;3.60;1.40;;;;;;;25.21;56.76;98556.69;4999871;28;20038;-63
2022/08/08 09:50:12;;;;;;;2.80;1.13;;;;;;;24.81;55.92;98552.28;5016340;28;20036;-60
2022/08/08 09:52:46;;;;;;;3.47;1.63;;;;;;;24.88;55.85;98550.28;5013313;28;20059;-63
2022/08/08 09:55:12;;;;;;;2.80;1.20;;;;;;;24.92;56.07;98556.72;5013764;28;20037;-63
2022/08/08 09:57:39;;;;;;;4.43;1.40;;;;;;;24.97;55.84;98550.69;5012582;28;20041;-63
2022/08/08 10:00:08;;;;;;;3.60;1.38;;;;;;;25.08;55.01;98546.31;5010383;28;20030;-61
2022/08/08 10:02:36;;;;;;;;;;;;;;;25.32;54.93;98544.38;5015733;28;20045;-61
2022/08/08 10:05:04;;;;;;;4.07;1.83;;;;;;;25.43;52.82;98516.88;5012615;28;20510;-63
2022/08/08 10:07:29;;;;;;;4.07;1.70;;;;;;;25.74;51.82;98543.91;5015091;28;20041;-60
2022/08/08 10:09:55;;;;;;;3.90;1.80;;;;;;;25.58;51.97;98502.16;5016653;28;20064;-59
2022/08/08 10:12:30;;;;;;;4.57;1.75;;;;;;;25.68;50.93;98497.78;5020696;28;20033;-64
2022/08/08 10:14:59;;;;;;;3.90;1.80;;;;;;;25.97;51.13;98532.25;5020083;28;20057;-62
2022/08/08 10:17:24;;;;;;;3.72;1.70;;;;;;;25.84;49.69;98498.78;5013424;28;20026;-62
2022/08/08 10:19:57;;;;;;;3.80;1.67;;;;;;;26.09;49.56;98527.63;5013002;28;20041;-60
2022/08/08 10:22:23;;;;;;;3.97;1.52;;;;;;;26.11;49.47;98538.03;5003496;28;20048;-64
2022/08/08 10:24:52;;;;;;;4.32;1.80;;;;;;;26.23;49.01;98540.56;5015884;28;20029;-62
2022/08/08 10:27:17;;;;;;;;;;;;;;;26.27;49.58;98531.03;5018732;28;20021;-61
2022/08/08 10:29:53;;;;;;;4.40;1.57;;;;;;;26.34;50.11;98530.81;5015329;28;19955;-63
2022/08/08 10:32:31;;;;;;;4.05;1.88;;;;;;;26.44;49.09;98523.75;5016426;28;20029;-60
2022/08/08 10:34:58;;;;;;;3.78;1.70;;;;;;;26.45;48.37;98522.72;5019028;28;20033;-60
2022/08/08 10:37:29;;;;;;;3.63;1.67;;;;;;;26.44;49.46;98530.94;5025644;28;20033;-61
2022/08/08 10:39:56;;;;;;;4.95;1.90;;;;;;;26.32;50.10;98495.63;5006383;28;20548;-60
2022/08/08 10:42:23;;;;;;;3.92;2.05;;;;;;;26.40;49.62;98501.31;5000501;28;20113;-62
2022/08/08 10:44:49;;;;;;;4.15;2.00;;;;;;;26.56;49.00;98490.81;5010736;28;20041;-61
2022/08/08 10:47:15;;;;;;;4.63;2.00;;;;;;;26.51;49.20;98493.44;5021350;28;20103;-60
2022/08/08 10:49:48;;;;;;;4.15;2.10;;;;;;;26.82;49.85;98515.91;5022789;28;20026;-61
2022/08/08 10:52:34;;;;;;;5.00;1.90;;;;;;;26.85;48.39;98486.84;5006054;28;20020;-64
2022/08/08 10:55:03;;;;;;;4.13;2.03;;;;;;;27.21;49.52;98510.34;5017915;28;20029;-62
2022/08/08 10:57:30;;;;;;;3.90;2.05;;;;;;;27.24;49.19;98507.16;5016763;28;20030;-60
2022/08/08 10:59:57;;;;;;;3.97;1.90;;;;;;;27.23;49.27;98501.03;5019655;28;20033;-62
2022/08/08 11:02:25;;;;;;;4.75;2.17;;;;;;;27.29;48.93;98498.41;5002951;28;20066;-62
2022/08/08 11:04:50;;;;;;;5.40;2.20;;;;;;;27.28;47.55;98507.47;4997773;28;20034;-62
2022/08/08 11:07:29;;;;;;;4.28;2.58;;;;;;;27.26;47.99;98502.41;5004351;28;20029;-64
2022/08/08 11:09:59;;;;;;;4.13;1.98;;;;;;;27.13;47.64;98495.59;4993697;28;20033;-65
2022/08/08 11:12:25;;;;;;;4.30;1.95;;;;;;;27.14;47.87;98507.88;5011699;28;20079;-60
2022/08/08 11:15:00;;;;;;;3.72;1.95;;;;;;;27.14;47.45;98504.41;5015000;28;20041;-62
2022/08/08 11:17:30;;;;;;;4.20;1.83;;;;;;;27.00;46.08;98470.16;5018027;28;20033;-59
2022/08/08 11:19:57;;;;;;;5.13;2.05;;;;;;;27.15;47.72;98490.81;5003173;28;20057;-63
2022/08/08 11:22:25;;;;;;;4.55;2.10;;;;;;;27.30;46.69;98495.47;5014223;28;20026;-63
2022/08/08 11:24:52;;;;;;;4.30;1.85;;;;;;;27.30;46.28;98489.34;5004855;28;20045;-61
2022/08/08 11:27:20;;;;;;;4.38;1.88;;;;;;;27.37;46.32;98485.38;5014480;28;20037;-58
2022/08/08 11:29:47;;;;;;;4.82;2.00;;;;;;;27.42;45.92;98497.97;5000186;28;20041;-59
2022/08/08 11:32:13;;;;;;;3.85;1.83;;;;;;;27.28;45.60;98462.91;5027641;28;20033;-58
2022/08/08 11:34:43;;;;;;;3.65;1.67;;;;;;;27.41;45.13;98480.34;5013442;28;20052;-56
2022/08/08 11:37:08;;;;;;;4.50;1.98;;;;;;;27.42;46.04;98480.09;5009450;28;20025;-61
2022/08/08 11:39:35;;;;;;;4.05;1.90;;;;;;;27.28;45.31;98454.91;5012918;28;20026;-58
2022/08/08 11:42:01;;;;;;;3.70;1.70;;;;;;;27.64;45.39;98478.31;5017023;28;20025;-59
2022/08/08 11:44:27;;;;;;;4.68;2.20;;;;;;;27.74;45.40;98483.72;5016317;28;20715;-58
2022/08/08 11:46:56;;;;;;;4.90;1.90;;;;;;;27.66;45.46;98449.50;5012205;28;20026;-58
2022/08/08 11:49:23;;;;;;;4.22;2.00;;;;;;;27.80;45.13;98472.81;5013330;28;20030;-58
2022/08/08 11:51:48;;;;;;;4.80;2.10;;;;;;;27.86;44.14;98470.97;4998546;28;20342;-56
2022/08/08 11:54:14;;;;;;;4.82;2.30;;;;;;;27.93;43.10;98446.72;5010438;28;20526;-57
2022/08/08 11:56:39;;;;;;;4.22;2.10;;;;;;;28.17;42.70;98460.41;5021651;28;20561;-63
2022/08/08 11:59:10;;;;;;;3.75;1.90;;;;;;;28.09;44.04;98464.41;5015907;28;20041;-56
2022/08/08 12:01:36;;;;;;;3.85;1.80;;;;;;;28.11;43.32;98462.25;5017311;28;20131;-58
2022/08/08 12:04:02;;;;;;;4.82;1.90;;;;;;;28.03;43.69;98454.75;4994522;28;20117;-58